sensor_id;sensor_type;location;lat;lon;timestamp;P1;durP1;ratioP1;P2;durP2;ratioP2
57155;SDS011;43023;59.928;10.682;2023-08-08T00:02:14;1.65;;;1.55;;
57155;SDS011;43023;59.928;10.682;2023-08-08T00:04:40;2.42;;;1.80;;
57155;SDS011;43023;59.928;10.682;2023-08-08T00:07:06;2.35;;;1.90;;
57155;SDS011;43023;59.928;10.682;2023-08-08T00:09:33;3.25;;;2.67;;
57155;SDS011;43023;59.928;10.682;2023-08-08T00:11:59;3.75;;;2.17;;
57155;SDS011;43023;59.928;10.682;2023-08-08T00:14:25;4.72;;;2.25;;
57155;SDS011;43023;59.928;10.682;2023-08-08T00:16:51;3.03;;;2.05;;
57155;SDS011;43023;59.928;10.682;2023-08-08T00:19:17;3.25;;;1.80;;
57155;SDS011;43023;59.928;10.682;2023-08-08T00:21:43;3.92;;;2.55;;
57155;SDS011;43023;59.928;10.682;2023-08-08T00:24:09;3.45;;;2.00;;
57155;SDS011;43023;59.928;10.682;2023-08-08T00:26:35;2.50;;;2.30;;
57155;SDS011;43023;59.928;10.682;2023-08-08T00:29:01;2.10;;;1.90;;
57155;SDS011;43023;59.928;10.682;2023-08-08T00:31:28;2.70;;;2.35;;
57155;SDS011;43023;59.928;10.682;2023-08-08T00:33:54;2.22;;;2.03;;
57155;SDS011;43023;59.928;10.682;2023-08-08T00:36:20;3.20;;;2.60;;
57155;SDS011;43023;59.928;10.682;2023-08-08T00:38:46;3.72;;;2.10;;
57155;SDS011;43023;59.928;10.682;2023-08-08T00:41:13;2.45;;;2.22;;
57155;SDS011;43023;59.928;10.682;2023-08-08T00:43:39;2.70;;;2.05;;
57155;SDS011;43023;59.928;10.682;2023-08-08T00:46:05;2.17;;;1.98;;
57155;SDS011;43023;59.928;10.682;2023-08-08T00:48:32;2.83;;;1.95;;
57155;SDS011;43023;59.928;10.682;2023-08-08T00:50:58;3.05;;;1.95;;
57155;SDS011;43023;59.928;10.682;2023-08-08T00:53:25;2.67;;;2.20;;
57155;SDS011;43023;59.928;10.682;2023-08-08T00:55:53;2.53;;;1.80;;
57155;SDS011;43023;59.928;10.682;2023-08-08T00:58:19;2.30;;;2.00;;
57155;SDS011;43023;59.928;10.682;2023-08-08T01:00:46;2.83;;;2.08;;
57155;SDS011;43023;59.928;10.682;2023-08-08T01:03:12;1.60;;;1.50;;
57155;SDS011;43023;59.928;10.682;2023-08-08T01:05:40;3.47;;;2.30;;
57155;SDS011;43023;59.928;10.682;2023-08-08T01:08:07;3.15;;;1.80;;
57155;SDS011;43023;59.928;10.682;2023-08-08T01:10:37;2.03;;;1.80;;
57155;SDS011;43023;59.928;10.682;2023-08-08T01:13:05;2.28;;;2.08;;
57155;SDS011;43023;59.928;10.682;2023-08-08T01:15:32;1.83;;;1.70;;
57155;SDS011;43023;59.928;10.682;2023-08-08T01:18:05;1.77;;;1.67;;
57155;SDS011;43023;59.928;10.682;2023-08-08T01:20:32;2.80;;;2.13;;
57155;SDS011;43023;59.928;10.682;2023-08-08T01:23:01;2.00;;;1.90;;
57155;SDS011;43023;59.928;10.682;2023-08-08T01:25:30;2.72;;;1.67;;
57155;SDS011;43023;59.928;10.682;2023-08-08T01:27:56;1.80;;;1.70;;
57155;SDS011;43023;59.928;10.682;2023-08-08T01:30:22;2.40;;;1.88;;
57155;SDS011;43023;59.928;10.682;2023-08-08T01:32:48;1.92;;;1.70;;
57155;SDS011;43023;59.928;10.682;2023-08-08T01:35:15;1.70;;;1.60;;
57155;SDS011;43023;59.928;10.682;2023-08-08T01:37:45;4.65;;;1.80;;
57155;SDS011;43023;59.928;10.682;2023-08-08T01:40:12;1.88;;;1.70;;
57155;SDS011;43023;59.928;10.682;2023-08-08T01:42:41;3.25;;;1.42;;
57155;SDS011;43023;59.928;10.682;2023-08-08T01:45:08;1.67;;;1.58;;
57155;SDS011;43023;59.928;10.682;2023-08-08T01:47:35;3.42;;;1.92;;
57155;SDS011;43023;59.928;10.682;2023-08-08T01:50:01;2.75;;;1.48;;
57155;SDS011;43023;59.928;10.682;2023-08-08T01:52:27;1.73;;;1.63;;
57155;SDS011;43023;59.928;10.682;2023-08-08T01:54:54;2.00;;;1.52;;
57155;SDS011;43023;59.928;10.682;2023-08-08T01:57:20;1.85;;;1.67;;
57155;SDS011;43023;59.928;10.682;2023-08-08T01:59:47;2.75;;;1.48;;
57155;SDS011;43023;59.928;10.682;2023-08-08T02:02:14;2.47;;;1.60;;
57155;SDS011;43023;59.928;10.682;2023-08-08T02:04:42;1.80;;;1.70;;
57155;SDS011;43023;59.928;10.682;2023-08-08T02:07:08;2.92;;;1.80;;
57155;SDS011;43023;59.928;10.682;2023-08-08T02:09:34;2.67;;;1.33;;
57155;SDS011;43023;59.928;10.682;2023-08-08T02:12:00;1.67;;;1.40;;
57155;SDS011;43023;59.928;10.682;2023-08-08T02:14:27;1.17;;;1.08;;
57155;SDS011;43023;59.928;10.682;2023-08-08T02:16:53;1.48;;;1.38;;
57155;SDS011;43023;59.928;10.682;2023-08-08T02:19:19;1.70;;;1.60;;
57155;SDS011;43023;59.928;10.682;2023-08-08T02:21:45;4.05;;;1.88;;
57155;SDS011;43023;59.928;10.682;2023-08-08T02:24:11;1.60;;;1.50;;
57155;SDS011;43023;59.928;10.682;2023-08-08T02:26:37;2.67;;;1.55;;
57155;SDS011;43023;59.928;10.682;2023-08-08T02:29:03;1.83;;;1.73;;
57155;SDS011;43023;59.928;10.682;2023-08-08T02:31:29;1.27;;;1.17;;
57155;SDS011;43023;59.928;10.682;2023-08-08T02:33:55;1.20;;;1.10;;
57155;SDS011;43023;59.928;10.682;2023-08-08T02:36:21;2.00;;;1.30;;
57155;SDS011;43023;59.928;10.682;2023-08-08T02:38:47;1.30;;;1.20;;
57155;SDS011;43023;59.928;10.682;2023-08-08T02:41:15;3.70;;;1.55;;
57155;SDS011;43023;59.928;10.682;2023-08-08T02:43:41;1.20;;;1.10;;
57155;SDS011;43023;59.928;10.682;2023-08-08T02:46:07;1.45;;;1.35;;
57155;SDS011;43023;59.928;10.682;2023-08-08T02:48:33;1.25;;;1.05;;
57155;SDS011;43023;59.928;10.682;2023-08-08T02:50:59;1.23;;;1.13;;
57155;SDS011;43023;59.928;10.682;2023-08-08T02:53:25;1.30;;;1.20;;
57155;SDS011;43023;59.928;10.682;2023-08-08T02:55:51;1.98;;;1.70;;
57155;SDS011;43023;59.928;10.682;2023-08-08T02:58:17;1.35;;;1.25;;
57155;SDS011;43023;59.928;10.682;2023-08-08T03:00:43;1.73;;;1.63;;
57155;SDS011;43023;59.928;10.682;2023-08-08T03:03:09;1.15;;;1.05;;
57155;SDS011;43023;59.928;10.682;2023-08-08T03:05:35;0.98;;;0.90;;
57155;SDS011;43023;59.928;10.682;2023-08-08T03:08:01;1.65;;;1.10;;
57155;SDS011;43023;59.928;10.682;2023-08-08T03:10:27;1.17;;;1.08;;
57155;SDS011;43023;59.928;10.682;2023-08-08T03:12:53;1.27;;;1.17;;
57155;SDS011;43023;59.928;10.682;2023-08-08T03:15:20;1.08;;;1.00;;
57155;SDS011;43023;59.928;10.682;2023-08-08T03:17:46;2.17;;;1.40;;
57155;SDS011;43023;59.928;10.682;2023-08-08T03:20:12;1.23;;;1.05;;
57155;SDS011;43023;59.928;10.682;2023-08-08T03:22:38;1.85;;;1.33;;
57155;SDS011;43023;59.928;10.682;2023-08-08T03:25:04;1.00;;;0.90;;
57155;SDS011;43023;59.928;10.682;2023-08-08T03:27:30;2.40;;;1.33;;
57155;SDS011;43023;59.928;10.682;2023-08-08T03:29:56;2.20;;;0.90;;
57155;SDS011;43023;59.928;10.682;2023-08-08T03:32:22;1.75;;;1.17;;
57155;SDS011;43023;59.928;10.682;2023-08-08T03:34:48;1.20;;;0.90;;
57155;SDS011;43023;59.928;10.682;2023-08-08T03:37:15;1.38;;;1.00;;
57155;SDS011;43023;59.928;10.682;2023-08-08T03:39:42;1.00;;;1.00;;
57155;SDS011;43023;59.928;10.682;2023-08-08T03:42:08;1.00;;;0.90;;
57155;SDS011;43023;59.928;10.682;2023-08-08T03:44:34;0.95;;;0.95;;
57155;SDS011;43023;59.928;10.682;2023-08-08T03:47:00;1.40;;;0.70;;
57155;SDS011;43023;59.928;10.682;2023-08-08T03:49:26;1.73;;;1.17;;
57155;SDS011;43023;59.928;10.682;2023-08-08T03:51:52;1.83;;;0.93;;
57155;SDS011;43023;59.928;10.682;2023-08-08T03:54:19;0.98;;;0.70;;
57155;SDS011;43023;59.928;10.682;2023-08-08T03:56:45;0.98;;;0.80;;
57155;SDS011;43023;59.928;10.682;2023-08-08T03:59:11;1.35;;;1.25;;
57155;SDS011;43023;59.928;10.682;2023-08-08T04:01:37;1.35;;;1.10;;
57155;SDS011;43023;59.928;10.682;2023-08-08T04:04:03;0.82;;;0.82;;
57155;SDS011;43023;59.928;10.682;2023-08-08T04:06:30;1.17;;;0.90;;
57155;SDS011;43023;59.928;10.682;2023-08-08T04:08:56;0.80;;;0.80;;
57155;SDS011;43023;59.928;10.682;2023-08-08T04:11:22;1.42;;;1.00;;
57155;SDS011;43023;59.928;10.682;2023-08-08T04:13:48;1.50;;;0.70;;
57155;SDS011;43023;59.928;10.682;2023-08-08T04:16:14;2.60;;;0.88;;
57155;SDS011;43023;59.928;10.682;2023-08-08T04:18:40;1.73;;;1.13;;
57155;SDS011;43023;59.928;10.682;2023-08-08T04:21:06;0.90;;;0.90;;
57155;SDS011;43023;59.928;10.682;2023-08-08T04:23:32;2.65;;;0.90;;
57155;SDS011;43023;59.928;10.682;2023-08-08T04:25:58;1.67;;;1.00;;
57155;SDS011;43023;59.928;10.682;2023-08-08T04:28:24;0.70;;;0.70;;
57155;SDS011;43023;59.928;10.682;2023-08-08T04:30:51;0.80;;;0.65;;
57155;SDS011;43023;59.928;10.682;2023-08-08T04:33:17;0.88;;;0.73;;
57155;SDS011;43023;59.928;10.682;2023-08-08T04:35:43;2.03;;;0.88;;
57155;SDS011;43023;59.928;10.682;2023-08-08T04:38:09;1.17;;;1.08;;
57155;SDS011;43023;59.928;10.682;2023-08-08T04:40:35;1.08;;;0.77;;
57155;SDS011;43023;59.928;10.682;2023-08-08T04:43:01;2.10;;;1.08;;
57155;SDS011;43023;59.928;10.682;2023-08-08T04:45:27;0.98;;;0.80;;
57155;SDS011;43023;59.928;10.682;2023-08-08T04:47:54;4.47;;;0.82;;
57155;SDS011;43023;59.928;10.682;2023-08-08T04:50:20;3.22;;;0.98;;
57155;SDS011;43023;59.928;10.682;2023-08-08T04:52:46;0.75;;;0.70;;
57155;SDS011;43023;59.928;10.682;2023-08-08T04:55:12;2.42;;;1.15;;
57155;SDS011;43023;59.928;10.682;2023-08-08T04:57:39;0.80;;;0.80;;
57155;SDS011;43023;59.928;10.682;2023-08-08T05:00:05;0.90;;;0.90;;
57155;SDS011;43023;59.928;10.682;2023-08-08T05:02:34;1.67;;;1.00;;
57155;SDS011;43023;59.928;10.682;2023-08-08T05:05:01;0.77;;;0.73;;
57155;SDS011;43023;59.928;10.682;2023-08-08T05:07:27;5.38;;;0.88;;
57155;SDS011;43023;59.928;10.682;2023-08-08T05:09:53;2.55;;;0.80;;
57155;SDS011;43023;59.928;10.682;2023-08-08T05:12:19;4.40;;;1.60;;
57155;SDS011;43023;59.928;10.682;2023-08-08T05:14:45;0.95;;;0.82;;
57155;SDS011;43023;59.928;10.682;2023-08-08T05:17:11;1.17;;;0.93;;
57155;SDS011;43023;59.928;10.682;2023-08-08T05:19:37;3.33;;;0.82;;
57155;SDS011;43023;59.928;10.682;2023-08-08T05:22:04;1.08;;;0.88;;
57155;SDS011;43023;59.928;10.682;2023-08-08T05:24:30;4.53;;;0.82;;
57155;SDS011;43023;59.928;10.682;2023-08-08T05:26:56;2.47;;;0.93;;
57155;SDS011;43023;59.928;10.682;2023-08-08T05:29:22;1.48;;;0.60;;
57155;SDS011;43023;59.928;10.682;2023-08-08T05:31:48;0.80;;;0.70;;
57155;SDS011;43023;59.928;10.682;2023-08-08T05:34:14;1.25;;;0.88;;
57155;SDS011;43023;59.928;10.682;2023-08-08T05:36:40;2.55;;;1.02;;
57155;SDS011;43023;59.928;10.682;2023-08-08T05:39:07;2.25;;;0.55;;
57155;SDS011;43023;59.928;10.682;2023-08-08T05:41:34;3.50;;;0.60;;
57155;SDS011;43023;59.928;10.682;2023-08-08T05:44:00;0.70;;;0.60;;
57155;SDS011;43023;59.928;10.682;2023-08-08T05:46:26;2.40;;;0.60;;
57155;SDS011;43023;59.928;10.682;2023-08-08T05:48:52;0.98;;;0.50;;
57155;SDS011;43023;59.928;10.682;2023-08-08T05:51:19;5.18;;;1.10;;
57155;SDS011;43023;59.928;10.682;2023-08-08T05:53:45;1.23;;;0.60;;
57155;SDS011;43023;59.928;10.682;2023-08-08T05:56:11;0.95;;;0.60;;
57155;SDS011;43023;59.928;10.682;2023-08-08T05:58:37;2.15;;;0.77;;
57155;SDS011;43023;59.928;10.682;2023-08-08T06:01:03;0.68;;;0.40;;
57155;SDS011;43023;59.928;10.682;2023-08-08T06:03:34;0.98;;;0.82;;
57155;SDS011;43023;59.928;10.682;2023-08-08T06:06:02;0.40;;;0.40;;
57155;SDS011;43023;59.928;10.682;2023-08-08T06:08:28;0.85;;;0.50;;
57155;SDS011;43023;59.928;10.682;2023-08-08T06:10:54;1.13;;;0.70;;
57155;SDS011;43023;59.928;10.682;2023-08-08T06:13:21;0.50;;;0.32;;
57155;SDS011;43023;59.928;10.682;2023-08-08T06:15:47;0.40;;;0.40;;
57155;SDS011;43023;59.928;10.682;2023-08-08T06:18:13;0.47;;;0.47;;
57155;SDS011;43023;59.928;10.682;2023-08-08T06:20:39;0.65;;;0.52;;
57155;SDS011;43023;59.928;10.682;2023-08-08T06:23:05;1.20;;;0.50;;
57155;SDS011;43023;59.928;10.682;2023-08-08T06:25:32;0.40;;;0.40;;
57155;SDS011;43023;59.928;10.682;2023-08-08T06:27:58;0.63;;;0.63;;
57155;SDS011;43023;59.928;10.682;2023-08-08T06:30:24;0.30;;;0.30;;
57155;SDS011;43023;59.928;10.682;2023-08-08T06:32:50;0.77;;;0.50;;
57155;SDS011;43023;59.928;10.682;2023-08-08T06:35:16;1.35;;;0.40;;
57155;SDS011;43023;59.928;10.682;2023-08-08T06:37:43;0.95;;;0.32;;
57155;SDS011;43023;59.928;10.682;2023-08-08T06:40:09;0.50;;;0.50;;
57155;SDS011;43023;59.928;10.682;2023-08-08T06:42:36;0.68;;;0.52;;
57155;SDS011;43023;59.928;10.682;2023-08-08T06:45:02;1.63;;;0.50;;
57155;SDS011;43023;59.928;10.682;2023-08-08T06:47:28;0.55;;;0.55;;
57155;SDS011;43023;59.928;10.682;2023-08-08T06:49:54;0.85;;;0.40;;
57155;SDS011;43023;59.928;10.682;2023-08-08T06:52:21;2.05;;;0.70;;
57155;SDS011;43023;59.928;10.682;2023-08-08T06:54:47;0.55;;;0.50;;
57155;SDS011;43023;59.928;10.682;2023-08-08T06:57:13;0.85;;;0.30;;
57155;SDS011;43023;59.928;10.682;2023-08-08T06:59:39;2.42;;;0.43;;
57155;SDS011;43023;59.928;10.682;2023-08-08T07:02:06;0.63;;;0.43;;
57155;SDS011;43023;59.928;10.682;2023-08-08T07:04:32;0.45;;;0.40;;
57155;SDS011;43023;59.928;10.682;2023-08-08T07:06:58;0.68;;;0.35;;
57155;SDS011;43023;59.928;10.682;2023-08-08T07:09:24;2.17;;;0.45;;
57155;SDS011;43023;59.928;10.682;2023-08-08T07:11:50;0.43;;;0.43;;
57155;SDS011;43023;59.928;10.682;2023-08-08T07:14:16;0.75;;;0.63;;
57155;SDS011;43023;59.928;10.682;2023-08-08T07:16:42;0.30;;;0.30;;
57155;SDS011;43023;59.928;10.682;2023-08-08T07:19:09;0.32;;;0.32;;
57155;SDS011;43023;59.928;10.682;2023-08-08T07:21:36;0.35;;;0.35;;
57155;SDS011;43023;59.928;10.682;2023-08-08T07:24:03;0.57;;;0.35;;
57155;SDS011;43023;59.928;10.682;2023-08-08T07:26:29;0.45;;;0.28;;
57155;SDS011;43023;59.928;10.682;2023-08-08T07:28:55;0.47;;;0.43;;
57155;SDS011;43023;59.928;10.682;2023-08-08T07:31:21;0.38;;;0.38;;
57155;SDS011;43023;59.928;10.682;2023-08-08T07:33:47;1.75;;;0.68;;
57155;SDS011;43023;59.928;10.682;2023-08-08T07:36:13;0.57;;;0.20;;
57155;SDS011;43023;59.928;10.682;2023-08-08T07:38:39;0.77;;;0.40;;
57155;SDS011;43023;59.928;10.682;2023-08-08T07:41:05;0.40;;;0.40;;
57155;SDS011;43023;59.928;10.682;2023-08-08T07:43:31;0.50;;;0.30;;
57155;SDS011;43023;59.928;10.682;2023-08-08T07:45:58;0.55;;;0.50;;
57155;SDS011;43023;59.928;10.682;2023-08-08T07:48:24;0.40;;;0.40;;
57155;SDS011;43023;59.928;10.682;2023-08-08T07:50:50;1.35;;;0.30;;
57155;SDS011;43023;59.928;10.682;2023-08-08T07:53:16;0.25;;;0.25;;
57155;SDS011;43023;59.928;10.682;2023-08-08T07:55:42;0.38;;;0.38;;
57155;SDS011;43023;59.928;10.682;2023-08-08T07:58:08;0.20;;;0.20;;
57155;SDS011;43023;59.928;10.682;2023-08-08T08:00:34;0.28;;;0.28;;
57155;SDS011;43023;59.928;10.682;2023-08-08T08:03:01;0.43;;;0.43;;
57155;SDS011;43023;59.928;10.682;2023-08-08T08:05:27;0.32;;;0.32;;
57155;SDS011;43023;59.928;10.682;2023-08-08T08:07:53;0.30;;;0.30;;
57155;SDS011;43023;59.928;10.682;2023-08-08T08:10:19;0.85;;;0.40;;
57155;SDS011;43023;59.928;10.682;2023-08-08T08:12:45;0.38;;;0.38;;
57155;SDS011;43023;59.928;10.682;2023-08-08T08:15:11;0.30;;;0.30;;
57155;SDS011;43023;59.928;10.682;2023-08-08T08:17:37;0.15;;;0.10;;
57155;SDS011;43023;59.928;10.682;2023-08-08T08:20:03;0.25;;;0.25;;
57155;SDS011;43023;59.928;10.682;2023-08-08T08:22:32;0.95;;;0.32;;
57155;SDS011;43023;59.928;10.682;2023-08-08T08:24:58;0.40;;;0.40;;
57155;SDS011;43023;59.928;10.682;2023-08-08T08:27:25;0.52;;;0.45;;
57155;SDS011;43023;59.928;10.682;2023-08-08T08:29:51;0.30;;;0.30;;
57155;SDS011;43023;59.928;10.682;2023-08-08T08:32:17;0.30;;;0.30;;
57155;SDS011;43023;59.928;10.682;2023-08-08T08:34:43;0.28;;;0.28;;
57155;SDS011;43023;59.928;10.682;2023-08-08T08:37:09;0.55;;;0.30;;
57155;SDS011;43023;59.928;10.682;2023-08-08T08:39:35;1.00;;;0.25;;
57155;SDS011;43023;59.928;10.682;2023-08-08T08:42:01;0.47;;;0.40;;
57155;SDS011;43023;59.928;10.682;2023-08-08T08:44:32;0.40;;;0.40;;
57155;SDS011;43023;59.928;10.682;2023-08-08T08:47:01;0.20;;;0.20;;
57155;SDS011;43023;59.928;10.682;2023-08-08T08:49:30;0.22;;;0.22;;
57155;SDS011;43023;59.928;10.682;2023-08-08T08:51:59;0.40;;;0.28;;
57155;SDS011;43023;59.928;10.682;2023-08-08T08:54:26;0.40;;;0.22;;
57155;SDS011;43023;59.928;10.682;2023-08-08T08:56:53;0.32;;;0.32;;
57155;SDS011;43023;59.928;10.682;2023-08-08T08:59:20;0.30;;;0.30;;
57155;SDS011;43023;59.928;10.682;2023-08-08T09:01:46;0.20;;;0.20;;
57155;SDS011;43023;59.928;10.682;2023-08-08T09:04:13;0.30;;;0.30;;
57155;SDS011;43023;59.928;10.682;2023-08-08T09:06:42;0.25;;;0.22;;
57155;SDS011;43023;59.928;10.682;2023-08-08T09:09:08;0.35;;;0.30;;
57155;SDS011;43023;59.928;10.682;2023-08-08T09:11:34;1.02;;;0.30;;
57155;SDS011;43023;59.928;10.682;2023-08-08T09:14:01;0.47;;;0.40;;
57155;SDS011;43023;59.928;10.682;2023-08-08T09:16:27;0.25;;;0.25;;
57155;SDS011;43023;59.928;10.682;2023-08-08T09:18:54;0.50;;;0.25;;
57155;SDS011;43023;59.928;10.682;2023-08-08T09:21:20;0.13;;;0.13;;
57155;SDS011;43023;59.928;10.682;2023-08-08T09:23:46;0.10;;;0.10;;
57155;SDS011;43023;59.928;10.682;2023-08-08T09:26:13;0.20;;;0.20;;
57155;SDS011;43023;59.928;10.682;2023-08-08T09:28:41;0.30;;;0.30;;
57155;SDS011;43023;59.928;10.682;2023-08-08T09:31:07;0.32;;;0.32;;
57155;SDS011;43023;59.928;10.682;2023-08-08T09:33:33;0.20;;;0.20;;
57155;SDS011;43023;59.928;10.682;2023-08-08T09:35:59;0.25;;;0.25;;
57155;SDS011;43023;59.928;10.682;2023-08-08T09:38:25;0.25;;;0.25;;
57155;SDS011;43023;59.928;10.682;2023-08-08T09:40:51;0.38;;;0.38;;
57155;SDS011;43023;59.928;10.682;2023-08-08T09:43:17;0.20;;;0.20;;
57155;SDS011;43023;59.928;10.682;2023-08-08T09:45:43;0.30;;;0.20;;
57155;SDS011;43023;59.928;10.682;2023-08-08T09:48:09;0.30;;;0.30;;
57155;SDS011;43023;59.928;10.682;2023-08-08T09:50:36;0.30;;;0.30;;
57155;SDS011;43023;59.928;10.682;2023-08-08T09:53:02;0.68;;;0.17;;
57155;SDS011;43023;59.928;10.682;2023-08-08T09:55:29;0.38;;;0.38;;
57155;SDS011;43023;59.928;10.682;2023-08-08T09:57:56;0.32;;;0.30;;
57155;SDS011;43023;59.928;10.682;2023-08-08T10:00:23;0.30;;;0.20;;
57155;SDS011;43023;59.928;10.682;2023-08-08T10:02:52;0.20;;;0.20;;
57155;SDS011;43023;59.928;10.682;2023-08-08T10:05:19;0.20;;;0.20;;
57155;SDS011;43023;59.928;10.682;2023-08-08T10:07:45;0.30;;;0.30;;
57155;SDS011;43023;59.928;10.682;2023-08-08T10:10:11;0.63;;;0.20;;
57155;SDS011;43023;59.928;10.682;2023-08-08T10:12:38;0.30;;;0.30;;
57155;SDS011;43023;59.928;10.682;2023-08-08T10:15:08;0.20;;;0.15;;
57155;SDS011;43023;59.928;10.682;2023-08-08T10:17:38;0.28;;;0.28;;
57155;SDS011;43023;59.928;10.682;2023-08-08T10:20:05;0.20;;;0.20;;
57155;SDS011;43023;59.928;10.682;2023-08-08T10:22:44;0.10;;;0.10;;
57155;SDS011;43023;59.928;10.682;2023-08-08T10:25:24;0.10;;;0.10;;
57155;SDS011;43023;59.928;10.682;2023-08-08T10:28:05;0.15;;;0.15;;
57155;SDS011;43023;59.928;10.682;2023-08-08T10:30:44;0.32;;;0.20;;
57155;SDS011;43023;59.928;10.682;2023-08-08T10:33:18;0.10;;;0.10;;
57155;SDS011;43023;59.928;10.682;2023-08-08T10:35:54;1.97;;;0.10;;
57155;SDS011;43023;59.928;10.682;2023-08-08T10:38:20;0.10;;;0.10;;
57155;SDS011;43023;59.928;10.682;2023-08-08T10:40:47;0.80;;;0.28;;
57155;SDS011;43023;59.928;10.682;2023-08-08T10:43:13;0.17;;;0.17;;
57155;SDS011;43023;59.928;10.682;2023-08-08T10:45:42;0.13;;;0.13;;
57155;SDS011;43023;59.928;10.682;2023-08-08T10:48:11;0.25;;;0.25;;
57155;SDS011;43023;59.928;10.682;2023-08-08T10:50:40;0.10;;;0.10;;
57155;SDS011;43023;59.928;10.682;2023-08-08T10:53:08;0.10;;;0.10;;
57155;SDS011;43023;59.928;10.682;2023-08-08T10:55:35;0.50;;;0.20;;
57155;SDS011;43023;59.928;10.682;2023-08-08T10:58:05;0.03;;;0.03;;
57155;SDS011;43023;59.928;10.682;2023-08-08T11:00:33;0.43;;;0.32;;
57155;SDS011;43023;59.928;10.682;2023-08-08T11:02:59;0.25;;;0.10;;
57155;SDS011;43023;59.928;10.682;2023-08-08T11:05:28;0.32;;;0.20;;
57155;SDS011;43023;59.928;10.682;2023-08-08T11:07:54;0.25;;;0.20;;
57155;SDS011;43023;59.928;10.682;2023-08-08T11:10:20;0.10;;;0.10;;
57155;SDS011;43023;59.928;10.682;2023-08-08T11:13:03;0.77;;;0.20;;
57155;SDS011;43023;59.928;10.682;2023-08-08T11:15:31;0.30;;;0.30;;
57155;SDS011;43023;59.928;10.682;2023-08-08T11:17:58;0.13;;;0.13;;
57155;SDS011;43023;59.928;10.682;2023-08-08T11:20:25;0.40;;;0.10;;
57155;SDS011;43023;59.928;10.682;2023-08-08T11:22:54;0.20;;;0.15;;
57155;SDS011;43023;59.928;10.682;2023-08-08T11:25:27;0.20;;;0.20;;
57155;SDS011;43023;59.928;10.682;2023-08-08T11:27:54;0.10;;;0.10;;
57155;SDS011;43023;59.928;10.682;2023-08-08T11:30:20;0.10;;;0.03;;
57155;SDS011;43023;59.928;10.682;2023-08-08T11:32:47;0.00;;;0.00;;
57155;SDS011;43023;59.928;10.682;2023-08-08T11:35:17;0.17;;;0.10;;
57155;SDS011;43023;59.928;10.682;2023-08-08T11:37:46;0.60;;;0.10;;
57155;SDS011;43023;59.928;10.682;2023-08-08T11:40:13;0.10;;;0.10;;
57155;SDS011;43023;59.928;10.682;2023-08-08T11:42:39;0.47;;;0.20;;
57155;SDS011;43023;59.928;10.682;2023-08-08T11:45:10;0.10;;;0.10;;
57155;SDS011;43023;59.928;10.682;2023-08-08T11:47:37;0.13;;;0.00;;
57155;SDS011;43023;59.928;10.682;2023-08-08T11:50:05;0.10;;;0.10;;
57155;SDS011;43023;59.928;10.682;2023-08-08T11:52:31;0.35;;;0.10;;
57155;SDS011;43023;59.928;10.682;2023-08-08T11:55:00;0.52;;;0.10;;
57155;SDS011;43023;59.928;10.682;2023-08-08T11:57:27;0.10;;;0.10;;
57155;SDS011;43023;59.928;10.682;2023-08-08T11:59:56;0.10;;;0.10;;
57155;SDS011;43023;59.928;10.682;2023-08-08T12:02:23;0.20;;;0.20;;
57155;SDS011;43023;59.928;10.682;2023-08-08T12:04:49;2.03;;;0.20;;
57155;SDS011;43023;59.928;10.682;2023-08-08T12:07:16;0.22;;;0.22;;
57155;SDS011;43023;59.928;10.682;2023-08-08T12:09:43;1.52;;;0.17;;
57155;SDS011;43023;59.928;10.682;2023-08-08T12:12:09;1.75;;;0.13;;
57155;SDS011;43023;59.928;10.682;2023-08-08T12:14:38;0.30;;;0.20;;
57155;SDS011;43023;59.928;10.682;2023-08-08T12:17:05;0.30;;;0.10;;
57155;SDS011;43023;59.928;10.682;2023-08-08T12:19:31;0.40;;;0.38;;
57155;SDS011;43023;59.928;10.682;2023-08-08T12:21:57;3.05;;;0.25;;
57155;SDS011;43023;59.928;10.682;2023-08-08T12:24:23;0.50;;;0.13;;
57155;SDS011;43023;59.928;10.682;2023-08-08T12:26:49;0.47;;;0.20;;
57155;SDS011;43023;59.928;10.682;2023-08-08T12:29:15;0.10;;;0.10;;
57155;SDS011;43023;59.928;10.682;2023-08-08T12:31:42;0.17;;;0.17;;
57155;SDS011;43023;59.928;10.682;2023-08-08T12:34:08;0.50;;;0.20;;
57155;SDS011;43023;59.928;10.682;2023-08-08T12:36:35;0.47;;;0.10;;
57155;SDS011;43023;59.928;10.682;2023-08-08T12:39:01;0.40;;;0.10;;
57155;SDS011;43023;59.928;10.682;2023-08-08T12:41:27;0.20;;;0.20;;
57155;SDS011;43023;59.928;10.682;2023-08-08T12:43:54;2.15;;;0.28;;
57155;SDS011;43023;59.928;10.682;2023-08-08T12:46:20;2.95;;;0.15;;
57155;SDS011;43023;59.928;10.682;2023-08-08T12:48:47;3.20;;;0.30;;
57155;SDS011;43023;59.928;10.682;2023-08-08T12:51:13;0.95;;;0.32;;
57155;SDS011;43023;59.928;10.682;2023-08-08T12:53:41;1.02;;;0.40;;
57155;SDS011;43023;59.928;10.682;2023-08-08T12:56:07;1.10;;;0.22;;
57155;SDS011;43023;59.928;10.682;2023-08-08T12:58:33;0.90;;;0.20;;
57155;SDS011;43023;59.928;10.682;2023-08-08T13:00:59;0.28;;;0.20;;
57155;SDS011;43023;59.928;10.682;2023-08-08T13:03:25;0.10;;;0.10;;
57155;SDS011;43023;59.928;10.682;2023-08-08T13:05:51;2.90;;;0.17;;
57155;SDS011;43023;59.928;10.682;2023-08-08T13:08:17;1.08;;;0.10;;
57155;SDS011;43023;59.928;10.682;2023-08-08T13:10:44;0.10;;;0.10;;
57155;SDS011;43023;59.928;10.682;2023-08-08T13:13:10;0.85;;;0.38;;
57155;SDS011;43023;59.928;10.682;2023-08-08T13:15:36;0.60;;;0.13;;
57155;SDS011;43023;59.928;10.682;2023-08-08T13:18:03;0.10;;;0.10;;
57155;SDS011;43023;59.928;10.682;2023-08-08T13:20:29;0.13;;;0.10;;
57155;SDS011;43023;59.928;10.682;2023-08-08T13:22:56;0.10;;;0.10;;
57155;SDS011;43023;59.928;10.682;2023-08-08T13:25:22;0.85;;;0.30;;
57155;SDS011;43023;59.928;10.682;2023-08-08T13:27:48;0.10;;;0.10;;
57155;SDS011;43023;59.928;10.682;2023-08-08T13:30:14;0.93;;;0.43;;
57155;SDS011;43023;59.928;10.682;2023-08-08T13:32:41;0.10;;;0.05;;
57155;SDS011;43023;59.928;10.682;2023-08-08T13:35:07;0.00;;;0.00;;
57155;SDS011;43023;59.928;10.682;2023-08-08T13:37:34;0.00;;;0.00;;
57155;SDS011;43023;59.928;10.682;2023-08-08T13:40:00;0.10;;;0.10;;
57155;SDS011;43023;59.928;10.682;2023-08-08T13:42:26;0.08;;;0.00;;
57155;SDS011;43023;59.928;10.682;2023-08-08T13:44:52;0.60;;;0.25;;
57155;SDS011;43023;59.928;10.682;2023-08-08T13:47:18;0.10;;;0.10;;
57155;SDS011;43023;59.928;10.682;2023-08-08T13:49:44;0.63;;;0.10;;
57155;SDS011;43023;59.928;10.682;2023-08-08T13:52:10;0.10;;;0.10;;
57155;SDS011;43023;59.928;10.682;2023-08-08T13:54:36;0.50;;;0.10;;
57155;SDS011;43023;59.928;10.682;2023-08-08T13:57:02;0.10;;;0.10;;
57155;SDS011;43023;59.928;10.682;2023-08-08T13:59:29;0.30;;;0.10;;
57155;SDS011;43023;59.928;10.682;2023-08-08T14:01:55;0.10;;;0.10;;
57155;SDS011;43023;59.928;10.682;2023-08-08T14:04:21;0.30;;;0.10;;
57155;SDS011;43023;59.928;10.682;2023-08-08T14:06:47;0.10;;;0.08;;
57155;SDS011;43023;59.928;10.682;2023-08-08T14:09:14;0.10;;;0.10;;
57155;SDS011;43023;59.928;10.682;2023-08-08T14:11:40;0.10;;;0.10;;
57155;SDS011;43023;59.928;10.682;2023-08-08T14:14:06;0.80;;;0.10;;
57155;SDS011;43023;59.928;10.682;2023-08-08T14:16:32;0.35;;;0.10;;
57155;SDS011;43023;59.928;10.682;2023-08-08T14:18:58;0.15;;;0.10;;
57155;SDS011;43023;59.928;10.682;2023-08-08T14:21:24;0.20;;;0.00;;
57155;SDS011;43023;59.928;10.682;2023-08-08T14:23:50;0.10;;;0.10;;
57155;SDS011;43023;59.928;10.682;2023-08-08T14:26:16;2.30;;;0.17;;
57155;SDS011;43023;59.928;10.682;2023-08-08T14:28:42;1.67;;;0.35;;
57155;SDS011;43023;59.928;10.682;2023-08-08T14:31:08;2.30;;;0.20;;